Time;durP1;ratioP1;P1;durP2;ratioP2;P2;SDS_P1;SDS_P2;PMS_P1;PMS_P2;Temp;Humidity;BMP_temperature;BMP_pressure;BME280_temperature;BME280_humidity;BME280_pressure;Samples;Min_cycle;Max_cycle;Signal;HPM_P1;HPM_P2
2022/05/23 00:01:04;;;;;;;139.63;132.45;;;16.90;99.90;;;17.01;100.00;99724.19;4897843;29;20228;-61
2022/05/23 00:03:32;;;;;;;133.05;126.25;;;16.90;99.90;;;16.86;100.00;99736.16;4898084;29;20200;-61
2022/05/23 00:06:01;;;;;;;132.30;125.80;;;16.90;99.90;;;16.87;100.00;99737.03;4883648;29;20213;-61
2022/05/23 00:08:29;;;;;;;125.13;119.15;;;16.80;99.90;;;16.82;100.00;99739.81;4876943;29;20219;-61
2022/05/23 00:10:57;;;;;;;132.65;125.32;;;16.80;99.90;;;16.82;100.00;99729.13;4892474;29;20239;-62
2022/05/23 00:13:26;;;;;;;124.07;117.65;;;16.80;99.90;;;16.81;100.00;99730.06;4905393;29;20215;-62
2022/05/23 00:15:54;;;;;;;132.35;126.07;;;16.80;99.90;;;16.84;100.00;99721.97;4891847;29;20242;-62
2022/05/23 00:18:32;;;;;;;111.20;105.07;;;16.70;99.90;;;16.73;100.00;99713.38;5069515;28;20581;-62
2022/05/23 00:21:00;;;;;;;110.22;105.10;;;16.70;99.90;;;16.53;100.00;99716.56;5012012;28;20257;-61
2022/05/23 00:23:28;;;;;;;111.95;105.95;;;16.60;99.90;;;16.54;100.00;99733.44;5025433;28;20222;-62
2022/05/23 00:25:56;;;;;;;109.97;104.15;;;16.60;99.90;;;16.55;100.00;99738.75;5003650;28;20202;-62
2022/05/23 00:28:24;;;;;;;108.15;102.13;;;16.50;99.90;;;16.48;100.00;99737.16;4999703;28;20207;-62
2022/05/23 00:30:52;;;;;;;118.28;111.78;;;16.50;99.90;;;16.46;100.00;99728.31;5024746;28;20238;-62
2022/05/23 00:36:07;;;;;;;119.82;112.97;;;16.40;99.90;;;16.47;100.00;99727.38;5042166;28;20210;-62
2022/05/23 00:38:35;;;;;;;101.22;96.10;;;16.40;99.90;;;16.50;100.00;99727.31;5006400;28;20238;-62
2022/05/23 00:44:20;;;;;;;104.63;99.63;;;16.30;99.90;;;16.47;100.00;99716.72;5003484;28;20675;-62
2022/05/23 00:47:11;;;;;;;101.32;95.88;;;16.30;99.90;;;16.48;100.00;99710.47;4994188;28;20601;-62
2022/05/23 00:49:39;;;;;;;109.05;103.65;;;16.30;99.90;;;16.46;100.00;99698.06;5007778;28;20223;-62
2022/05/23 00:52:15;;;;;;;107.35;101.90;;;17.70;99.90;;;16.35;100.00;99701.03;5019324;28;20645;-62
2022/05/23 00:54:46;;;;;;;110.25;103.75;;;16.30;99.90;;;16.31;100.00;99702.91;4990391;28;20210;-62
2022/05/23 00:57:21;;;;;;;106.75;101.38;;;16.30;99.90;;;16.27;100.00;99706.56;5011308;28;20226;-62
2022/05/23 00:59:49;;;;;;;111.70;106.03;;;16.20;99.90;;;16.32;100.00;99704.66;5016094;28;20226;-62
2022/05/23 01:02:19;;;;;;;107.68;101.88;;;16.20;99.90;;;16.32;100.00;99709.09;4974673;28;20204;-61
2022/05/23 01:04:48;;;;;;;122.53;116.03;;;16.20;99.90;;;16.19;100.00;99703.22;4988322;28;20206;-61
2022/05/23 01:07:17;;;;;;;120.00;113.75;;;16.10;99.90;;;16.09;100.00;99699.03;4990999;28;20207;-62
2022/05/23 01:09:45;;;;;;;123.15;117.07;;;16.10;99.90;;;16.11;100.00;99694.53;5002772;28;20223;-62
2022/05/23 01:12:14;;;;;;;137.52;130.93;;;16.00;99.90;;;16.14;100.00;99688.25;5023814;28;20207;-62
2022/05/23 01:14:52;;;;;;;127.05;121.13;;;16.00;99.90;;;16.13;100.00;99683.81;4993328;28;20209;-61
2022/05/23 01:17:22;;;;;;;124.00;118.55;;;16.00;99.90;;;16.09;100.00;99682.16;4999675;28;20250;-62
2022/05/23 01:19:52;;;;;;;118.22;112.78;;;15.90;99.90;;;16.02;100.00;99691.22;4990374;28;20230;-62
2022/05/23 01:22:43;;;;;;;126.18;120.22;;;16.00;99.90;;;15.95;100.00;99686.03;4990638;28;20211;-62
2022/05/23 01:25:30;;;;;;;127.43;120.50;;;15.90;99.90;;;15.86;100.00;99698.72;5025088;28;20222;-62
2022/05/23 01:28:00;;;;;;;122.75;116.57;;;15.90;99.90;;;15.90;100.00;99713.72;5028043;28;20213;-62
2022/05/23 01:30:31;;;;;;;120.45;115.05;;;15.90;99.90;;;15.92;100.00;99722.56;4994112;28;20235;-62
2022/05/23 01:33:14;;;;;;;123.45;117.28;;;15.80;99.90;;;15.88;100.00;99710.22;4957283;28;20212;-62
2022/05/23 01:35:43;;;;;;;121.80;116.07;;;15.80;99.90;;;15.80;100.00;99713.06;5007835;28;20227;-62
2022/05/23 01:38:12;;;;;;;119.82;114.90;;;15.80;99.90;;;15.73;100.00;99697.25;5019656;28;20239;-62
2022/05/23 01:40:56;;;;;;;115.65;109.65;;;15.70;99.90;;;15.72;100.00;99698.16;4975794;28;20228;-62
2022/05/23 01:43:26;;;;;;;124.78;116.57;;;15.70;99.90;;;15.75;100.00;99690.09;4963744;28;20227;-62
2022/05/23 01:46:30;;;;;;;119.88;113.88;;;15.70;99.90;;;15.76;100.00;99697.19;4999127;28;20215;-62
2022/05/23 01:49:18;;;;;;;120.18;113.60;;;15.70;99.90;;;15.78;100.00;99712.22;5001683;28;20586;-62
2022/05/23 01:51:46;;;;;;;126.45;119.63;;;15.70;99.90;;;15.79;100.00;99711.31;4986190;28;20204;-62
2022/05/23 01:54:16;;;;;;;121.60;114.47;;;15.70;99.90;;;15.84;100.00;99720.09;5005757;28;20214;-62
2022/05/23 01:56:48;;;;;;;121.40;114.15;;;15.70;99.90;;;15.89;100.00;99722.63;5017922;28;20208;-62
2022/05/23 02:02:40;;;;;;;125.22;116.88;;;15.70;99.90;;;15.98;100.00;99698.41;5013430;28;20215;-62
2022/05/23 02:05:08;;;;;;;122.53;115.65;;;15.70;99.90;;;15.97;100.00;99696.66;4996120;28;20689;-62
2022/05/23 02:07:36;;;;;;;119.43;113.18;;;15.70;99.90;;;15.98;100.00;99688.63;4982168;28;20722;-62
2022/05/23 02:10:05;;;;;;;119.70;114.13;;;15.70;99.90;;;16.07;100.00;99691.97;4983326;28;20223;-62
2022/05/23 02:12:39;;;;;;;115.20;109.40;;;15.80;99.90;;;16.10;100.00;99678.56;5027155;28;20245;-62
2022/05/23 02:15:12;;;;;;;103.15;96.85;;;15.80;99.90;;;16.08;100.00;99677.72;5008222;28;20207;-62
2022/05/23 02:18:03;;;;;;;90.85;85.43;;;15.80;99.90;;;16.04;100.00;99692.06;5050981;28;20607;-61
2022/05/23 02:20:31;;;;;;;93.97;88.10;;;15.80;99.90;;;16.04;100.00;99698.25;5006797;28;20249;-62
2022/05/23 02:22:59;;;;;;;105.20;99.30;;;15.80;99.90;;;16.11;100.00;99697.19;5022793;28;20207;-61
2022/05/23 02:25:29;;;;;;;119.88;113.40;;;15.80;99.90;;;16.06;100.00;99675.09;5053501;28;20207;-62
2022/05/23 02:27:58;;;;;;;112.65;106.63;;;15.80;99.90;;;16.02;100.00;99672.56;5008394;28;20202;-61
2022/05/23 02:30:39;;;;;;;113.82;107.30;;;15.80;99.90;;;16.00;100.00;99664.59;4979877;28;20226;-61
2022/05/23 02:33:18;;;;;;;120.40;114.07;;;15.80;99.90;;;16.02;100.00;99668.09;4989133;28;20573;-62
2022/05/23 02:35:53;;;;;;;113.53;107.28;;;15.80;99.90;;;15.98;100.00;99674.41;5037331;28;21352;-62
2022/05/23 02:38:21;;;;;;;110.95;104.60;;;15.80;99.90;;;16.01;100.00;99674.34;5026088;28;20227;-62
2022/05/23 02:40:49;;;;;;;112.45;106.03;;;15.80;99.90;;;15.99;100.00;99687.72;5023260;28;20223;-62
2022/05/23 02:43:17;;;;;;;109.50;103.82;;;15.80;99.90;;;16.00;100.00;99685.91;4992276;28;20222;-62
2022/05/23 02:45:51;;;;;;;111.63;106.03;;;15.80;99.90;;;15.98;100.00;99688.63;4992818;28;20207;-62
2022/05/23 02:48:20;;;;;;;110.15;104.05;;;15.80;99.90;;;15.98;100.00;99685.97;5013371;28;20214;-62
2022/05/23 02:50:49;;;;;;;108.22;101.53;;;15.80;99.90;;;16.05;100.00;99694.69;4996959;28;20226;-62
2022/05/23 02:53:17;;;;;;;103.03;97.63;;;15.80;99.90;;;16.02;100.00;99689.44;5050029;28;20214;-62
2022/05/23 02:55:50;;;;;;;112.53;106.72;;;15.80;99.90;;;16.09;100.00;99695.47;4998032;28;20203;-62
2022/05/23 02:58:18;;;;;;;111.40;105.63;;;15.80;99.90;;;16.10;100.00;99687.44;5014101;28;20221;-62
2022/05/23 03:00:47;;;;;;;108.60;102.90;;;15.90;99.90;;;16.10;100.00;99687.44;4998075;28;20234;-62
2022/05/23 03:03:15;;;;;;;112.65;106.80;;;15.90;99.90;;;16.16;100.00;99695.28;5029050;28;20203;-62
2022/05/23 03:05:53;;;;;;;110.65;103.93;;;15.90;99.90;;;16.15;100.00;99698.00;5037586;28;20202;-62
2022/05/23 03:08:25;;;;;;;111.93;105.47;;;15.90;99.90;;;16.14;100.00;99691.78;4992339;28;20214;-61
2022/05/23 03:11:01;;;;;;;113.15;106.82;;;15.90;99.90;;;16.10;100.00;99692.78;5035662;28;20249;-61
2022/05/23 03:13:29;;;;;;;122.00;115.15;;;15.90;99.90;;;16.13;100.00;99703.38;5010160;28;20210;-61
2022/05/23 03:15:58;;;;;;;115.07;108.72;;;15.80;99.90;;;16.18;100.00;99720.13;4992280;28;20593;-61
2022/05/23 03:18:28;;;;;;;113.28;106.60;;;15.90;99.90;;;16.22;100.00;99728.94;5025005;28;20249;-61
2022/05/23 03:21:09;;;;;;;114.20;108.55;;;15.90;99.90;;;16.28;100.00;99734.13;5008164;28;20233;-61
2022/05/23 03:29:17;;;;;;;121.53;115.35;;;15.90;99.90;;;16.21;100.00;99764.53;5010048;28;20226;-61
2022/05/23 03:31:49;;;;;;;122.10;116.13;;;16.00;99.90;;;16.26;100.00;99798.19;4985608;28;20202;-62
2022/05/23 03:34:17;;;;;;;127.82;121.65;;;16.00;99.90;;;16.32;100.00;99854.06;5035044;28;20210;-61
2022/05/23 03:36:45;;;;;;;133.43;127.57;;;16.00;99.90;;;16.43;100.00;99923.19;5012491;28;20217;-62
2022/05/23 03:39:13;;;;;;;140.60;133.77;;;16.00;99.90;;;16.31;100.00;99976.84;5000446;28;20222;-62
2022/05/23 03:41:41;;;;;;;124.20;117.50;;;16.00;99.90;;;16.21;100.00;99993.97;4982669;28;20221;-62
2022/05/23 03:44:10;;;;;;;115.18;110.13;;;16.00;99.90;;;16.21;100.00;100012.63;5024182;28;20206;-62
2022/05/23 03:46:38;;;;;;;110.88;104.78;;;15.90;99.90;;;16.30;100.00;100013.31;5008905;28;20199;-62
2022/05/23 03:49:09;;;;;;;112.32;106.00;;;16.00;99.90;;;16.25;100.00;100004.53;5028371;28;20206;-62
2022/05/23 03:51:37;;;;;;;104.95;99.60;;;16.00;99.90;;;16.18;100.00;100015.38;4993843;28;20218;-63
2022/05/23 03:54:07;;;;;;;109.25;103.75;;;15.90;99.90;;;16.10;100.00;100014.66;4979490;28;20205;-63
2022/05/23 03:56:36;;;;;;;106.95;101.45;;;16.00;99.90;;;16.09;100.00;100018.22;5032070;28;20210;-62
2022/05/23 03:59:05;;;;;;;118.43;111.32;;;15.90;99.90;;;15.99;100.00;100037.06;5009969;28;20237;-63
2022/05/23 04:01:45;;;;;;;120.30;114.28;;;15.90;99.90;;;16.16;100.00;100027.84;5011434;28;20202;-63
2022/05/23 04:04:29;;;;;;;114.45;108.50;;;15.90;99.90;;;16.15;100.00;100021.66;5022892;28;20701;-62
2022/05/23 04:07:17;;;;;;;115.15;109.40;;;15.90;99.90;;;16.09;100.00;100040.44;5030388;28;20199;-62
2022/05/23 04:09:58;;;;;;;112.25;106.57;;;15.90;99.90;;;16.02;100.00;100044.13;5013740;28;20219;-63
2022/05/23 04:12:28;;;;;;;118.55;112.82;;;15.90;99.90;;;16.02;100.00;100056.59;5039883;28;20217;-63
2022/05/23 04:14:56;;;;;;;103.47;98.72;;;15.90;99.90;;;16.05;100.00;100068.09;5011737;28;20202;-62
2022/05/23 04:17:28;;;;;;;106.20;101.20;;;15.90;99.90;;;15.92;100.00;100063.88;5029303;28;20214;-62
2022/05/23 04:19:57;;;;;;;105.82;100.60;;;15.90;99.90;;;15.91;100.00;100020.34;5027269;28;20237;-62
2022/05/23 04:22:26;;;;;;;102.43;97.03;;;15.90;99.90;;;15.94;100.00;100027.41;5043030;28;20210;-62
2022/05/23 04:25:04;;;;;;;98.78;93.32;;;15.90;99.90;;;15.99;100.00;100034.41;5004283;28;20198;-62
2022/05/23 04:27:33;;;;;;;99.60;94.22;;;15.80;99.90;;;15.93;100.00;100037.19;5013427;28;20207;-62
2022/05/23 04:30:04;;;;;;;94.93;90.53;;;15.80;99.90;;;15.92;100.00;100018.56;5014682;28;20233;-62
2022/05/23 04:35:28;;;;;;;98.45;93.60;;;15.80;99.90;;;15.75;100.00;100039.31;5022736;28;20206;-62
2022/05/23 04:37:57;;;;;;;102.97;97.72;;;15.80;99.90;;;15.77;100.00;100030.38;5025221;28;20205;-62
2022/05/23 04:40:31;;;;;;;100.93;95.68;;;15.70;99.90;;;15.78;100.00;100032.16;5013203;28;20234;-63
2022/05/23 04:43:03;;;;;;;86.68;83.03;;;15.70;99.90;;;15.72;100.00;100023.38;5011941;28;20203;-62
2022/05/23 04:45:31;;;;;;;93.18;87.68;;;15.70;99.90;;;15.67;100.00;100004.81;4994919;28;20210;-62
2022/05/23 04:50:58;;;;;;;108.03;100.70;;;15.60;99.90;;;15.52;100.00;99959.72;5001259;28;20226;-62
2022/05/23 04:53:34;;;;;;;97.70;92.47;;;15.50;99.90;;;15.43;100.00;99942.13;5014238;28;20210;-63
2022/05/23 04:56:07;;;;;;;92.30;87.40;;;15.40;99.90;;;15.40;100.00;99926.19;5001926;28;20643;-62
2022/05/23 04:58:36;;;;;;;85.45;80.88;;;15.40;99.90;;;15.42;100.00;99937.69;4997961;28;20564;-63
2022/05/23 05:01:04;;;;;;;96.15;90.55;;;15.30;99.90;;;15.44;100.00;99949.22;5013792;28;20249;-62
2022/05/23 05:03:32;;;;;;;83.40;78.75;;;15.40;99.90;;;15.55;100.00;99954.34;4997543;28;20225;-62
2022/05/23 05:06:00;;;;;;;94.25;88.13;;;15.40;99.90;;;15.47;100.00;99956.25;5033579;28;20203;-62
2022/05/23 05:08:28;;;;;;;89.53;84.13;;;15.40;99.90;;;15.51;100.00;99950.84;5050484;28;20717;-62
2022/05/23 05:11:01;;;;;;;84.72;79.03;;;15.40;99.90;;;15.42;100.00;99935.03;5031663;28;20230;-62
2022/05/23 05:13:32;;;;;;;87.75;83.15;;;15.40;99.90;;;15.54;100.00;99961.44;5020592;28;20210;-62
2022/05/23 05:16:03;;;;;;;85.85;81.88;;;15.40;99.90;;;15.50;100.00;99981.06;5015984;28;20221;-62
2022/05/23 05:18:35;;;;;;;89.15;84.00;;;15.50;99.90;;;15.52;100.00;99989.03;5030134;28;20659;-62
2022/05/23 05:21:25;;;;;;;90.85;86.15;;;15.50;99.90;;;15.59;100.00;99966.72;5012574;28;20210;-62
2022/05/23 05:24:14;;;;;;;100.80;94.80;;;15.50;99.90;;;15.54;100.00;99856.63;5003122;28;20202;-62
2022/05/23 05:27:00;;;;;;;99.75;94.50;;;15.50;99.90;;;15.42;100.00;99817.78;5029431;28;20362;-62
2022/05/23 05:29:29;;;;;;;104.88;99.07;;;15.40;99.90;;;15.54;100.00;99865.50;5025056;28;20231;-62
2022/05/23 05:32:07;;;;;;;90.32;85.28;;;15.40;99.90;;;15.64;100.00;99924.91;5032517;28;20225;-63
2022/05/23 05:34:54;;;;;;;91.28;86.65;;;15.50;99.90;;;15.59;100.00;99922.28;5052785;28;20202;-63
2022/05/23 05:37:36;;;;;;;91.75;86.88;;;15.50;99.90;;;15.86;100.00;99920.91;5053151;28;20209;-62
2022/05/23 05:40:05;;;;;;;89.97;84.90;;;15.60;99.90;;;15.87;100.00;99908.44;4992898;28;20231;-62
2022/05/23 05:42:44;;;;;;;87.65;82.85;;;15.70;99.90;;;15.91;100.00;99913.69;5015059;28;20206;-62
2022/05/23 05:45:17;;;;;;;85.05;80.22;;;15.80;99.90;;;16.07;100.00;99926.69;5031106;28;20218;-62
2022/05/23 05:47:49;;;;;;;80.35;75.55;;;15.90;99.90;;;16.15;100.00;99930.94;5032744;28;20214;-62
2022/05/23 05:50:41;;;;;;;80.70;76.25;;;15.90;99.90;;;15.97;100.00;99888.66;5021650;28;20244;-62
2022/05/23 05:53:43;;;;;;;89.53;84.55;;;16.00;99.90;;;16.11;100.00;99883.03;5030909;28;20218;-62
2022/05/23 05:56:19;;;;;;;89.40;84.30;;;16.00;99.90;;;16.10;100.00;99887.50;5015969;28;20566;-62
2022/05/23 05:58:48;;;;;;;89.43;84.47;;;16.00;99.90;;;16.16;100.00;99891.81;5048404;28;20210;-62
2022/05/23 06:01:17;;;;;;;86.85;81.55;;;16.10;99.90;;;16.17;100.00;99898.91;5018490;28;20690;-62
2022/05/23 06:03:45;;;;;;;83.07;78.65;;;16.10;99.90;;;16.26;100.00;99904.91;4988766;28;20210;-62
2022/05/23 06:11:56;;;;;;;93.47;88.18;;;16.30;99.90;;;16.40;100.00;99893.03;5031695;28;20202;-62
2022/05/23 06:14:27;;;;;;;101.40;94.60;;;16.30;99.90;;;16.43;100.00;99883.16;5031589;28;20211;-62
2022/05/23 06:17:01;;;;;;;94.13;89.20;;;16.30;99.90;;;16.45;100.00;99875.13;5011330;28;20214;-62
2022/05/23 06:19:39;;;;;;;92.00;87.28;;;16.40;99.90;;;16.45;100.00;99883.13;5020761;28;20756;-63
2022/05/23 06:22:22;;;;;;;102.22;96.32;;;16.40;99.90;;;16.47;100.00;99875.97;5018571;28;20203;-62
2022/05/23 06:25:11;;;;;;;109.45;103.18;;;16.40;99.90;;;16.58;100.00;99890.81;5022872;28;20205;-62
2022/05/23 06:27:39;;;;;;;97.35;91.70;;;16.40;99.90;;;16.58;100.00;99879.25;4999578;28;20206;-62
2022/05/23 06:30:13;;;;;;;99.40;93.43;;;16.50;99.90;;;16.73;100.00;99873.56;5031043;28;20227;-63
2022/05/23 06:32:44;;;;;;;94.82;88.93;;;16.50;99.90;;;16.84;100.00;99879.53;5030019;28;20672;-63
2022/05/23 06:35:17;;;;;;;96.13;90.50;;;16.60;99.90;;;16.73;100.00;99865.56;5015314;28;20717;-62
2022/05/23 06:37:49;;;;;;;93.35;88.07;;;16.70;99.90;;;16.82;100.00;99861.78;5040569;28;20574;-62
2022/05/23 06:40:37;;;;;;;90.30;85.40;;;16.70;99.90;;;16.86;100.00;99863.47;4997327;28;20237;-62
2022/05/23 06:43:26;;;;;;;91.40;86.20;;;16.80;99.90;;;16.97;100.00;99879.25;4995093;28;20222;-63
2022/05/23 06:46:23;;;;;;;90.97;86.22;;;16.80;99.90;;;16.85;100.00;99867.91;4995186;28;20208;-62
2022/05/23 06:48:59;;;;;;;92.57;87.00;;;16.80;99.90;;;16.95;100.00;99881.94;5037189;28;20213;-63
2022/05/23 06:51:59;;;;;;;97.00;91.05;;;16.80;99.90;;;17.17;100.00;99900.97;4997594;28;20244;-63
2022/05/23 06:54:38;;;;;;;85.72;81.15;;;16.90;99.90;;;17.02;100.00;99878.19;5015740;28;20213;-62
2022/05/23 06:57:11;;;;;;;94.30;89.18;;;16.90;99.90;;;17.34;100.00;99904.06;5003030;28;20613;-62
2022/05/23 06:59:40;;;;;;;88.78;83.72;;;17.00;99.90;;;17.31;100.00;99881.88;5018506;28;20698;-63
2022/05/23 07:02:10;;;;;;;86.22;81.75;;;17.10;99.90;;;17.32;100.00;99876.50;5009767;28;20195;-62
2022/05/23 07:13:20;;;;;;;87.78;82.78;;;17.50;99.90;;;17.52;100.00;99875.94;5002086;28;20206;-63
2022/05/23 07:15:48;;;;;;;90.00;84.78;;;17.50;99.90;;;17.44;100.00;99872.63;5080632;28;20206;-63
2022/05/23 07:18:19;;;;;;;94.15;88.82;;;17.50;99.90;;;17.47;100.00;99861.84;5016535;28;20234;-63
2022/05/23 07:20:49;;;;;;;101.88;96.32;;;17.50;99.90;;;17.62;100.00;99857.84;5009288;28;20234;-63
2022/05/23 07:23:26;;;;;;;105.25;99.13;;;17.50;99.90;;;17.66;100.00;99847.06;5036217;28;20699;-62
2022/05/23 07:26:07;;;;;;;100.55;95.20;;;17.60;99.90;;;17.54;100.00;99818.84;5037177;28;20233;-62
2022/05/23 07:28:52;;;;;;;101.60;96.35;;;17.60;99.90;;;17.72;100.00;99840.66;5035581;28;20205;-62
2022/05/23 07:31:24;;;;;;;110.20;104.70;;;17.70;99.90;;;17.75;100.00;99829.88;5017790;28;20214;-62
2022/05/23 07:33:52;;;;;;;111.28;105.03;;;17.70;99.90;;;18.01;100.00;99831.75;5032411;28;20234;-63
2022/05/23 07:36:21;;;;;;;109.35;103.35;;;17.80;99.90;;;18.06;100.00;99811.06;5061912;28;20210;-63
2022/05/23 07:38:51;;;;;;;109.13;104.25;;;18.00;99.90;;;18.32;100.00;99823.66;5049659;28;20210;-63
2022/05/23 07:41:41;;;;;;;116.00;110.18;;;18.10;99.90;;;18.60;100.00;99799.53;5024747;28;20241;-63
2022/05/23 07:44:12;;;;;;;120.75;113.80;;;18.80;99.90;;;18.83;100.00;99771.06;5048808;28;20229;-63
2022/05/23 07:46:43;;;;;;;124.15;117.47;;;18.60;99.90;;;18.86;100.00;99754.88;5032917;28;20217;-63
2022/05/23 07:49:14;;;;;;;136.63;128.23;;;18.80;99.90;;;18.79;100.00;99739.94;4984604;28;20206;-62
2022/05/23 07:51:56;;;;;;;117.00;110.85;;;18.80;99.90;;;18.70;100.00;99726.00;5058474;28;20213;-63
2022/05/23 08:03:20;;;;;;;125.70;118.95;;;19.10;99.90;;;18.88;100.00;99658.38;5039622;28;20210;-63
2022/05/23 08:06:17;;;;;;;130.20;123.25;;;19.20;99.90;;;19.21;100.00;99671.44;5028762;28;20217;-63
2022/05/23 08:08:47;;;;;;;138.10;130.55;;;19.10;99.90;;;19.54;100.00;99663.94;5015770;28;20209;-63
2022/05/23 08:11:17;;;;;;;138.00;130.52;;;19.20;99.90;;;20.01;100.00;99667.38;5049555;28;20232;-63
2022/05/23 08:14:12;;;;;;;139.57;131.82;;;19.10;99.90;;;19.73;100.00;99646.16;5040577;28;20671;-63
2022/05/23 08:17:01;;;;;;;136.23;130.23;;;19.70;99.90;;;20.01;100.00;99652.13;5038857;28;20229;-63
2022/05/23 08:19:36;;;;;;;135.73;129.02;;;20.00;99.90;;;19.85;100.00;99613.47;5001423;28;20234;-63
2022/05/23 08:22:17;;;;;;;136.52;129.55;;;20.20;99.90;;;20.10;100.00;99624.03;5001867;28;20226;-63
2022/05/23 08:24:53;;;;;;;146.52;138.88;;;20.20;99.90;;;20.36;100.00;99647.94;5019522;28;20220;-63
2022/05/23 08:27:21;;;;;;;141.88;134.48;;;20.30;99.90;;;20.64;100.00;99623.44;4984331;28;20219;-63
2022/05/23 08:29:52;;;;;;;135.57;128.60;;;20.60;99.90;;;20.78;100.00;99626.38;5005231;28;20238;-61
2022/05/23 08:32:21;;;;;;;132.80;125.72;;;20.70;99.90;;;20.44;100.00;99549.16;5003335;28;20195;-61
2022/05/23 08:34:57;;;;;;;133.60;126.50;;;20.60;99.90;;;20.81;100.00;99593.16;4980865;28;20203;-61
2022/05/23 08:37:26;;;;;;;127.50;120.55;;;20.70;99.90;;;21.16;100.00;99594.19;4994453;28;20215;-61
2022/05/23 08:39:54;;;;;;;130.00;123.00;;;21.00;99.90;;;21.29;100.00;99583.75;5025045;28;20233;-61
2022/05/23 08:42:56;;;;;;;124.38;116.65;;;21.20;99.90;;;22.19;100.00;99642.09;5003940;28;20214;-61
2022/05/23 08:45:35;;;;;;;107.30;101.40;;;21.60;99.90;;;21.54;100.00;99517.03;5008354;28;20547;-61
2022/05/23 08:48:27;;;;;;;107.10;100.85;;;21.90;99.90;;;22.02;100.00;99562.13;5002960;28;20202;-61
2022/05/23 08:52:01;;;;;;;100.32;94.60;;;22.10;99.90;;;21.90;100.00;99529.56;5019632;28;20221;-61
2022/05/23 08:55:02;;;;;;;84.38;79.05;;;22.10;99.90;;;22.47;100.00;99570.59;4970221;28;20225;-61
2022/05/23 08:58:20;;;;;;;81.15;76.70;;;22.30;99.90;;;22.49;100.00;99539.06;5024518;28;20606;-61
2022/05/23 09:00:57;;;;;;;95.43;89.97;;;22.70;99.90;;;22.46;100.00;99531.16;5041553;28;20256;-61
2022/05/23 09:03:39;;;;;;;88.65;83.70;;;22.70;99.90;;;22.82;100.00;99563.34;5012634;28;20216;-61
2022/05/23 09:06:34;;;;;;;85.45;80.03;;;22.80;99.90;;;23.10;100.00;99536.56;4984436;28;20194;-61
2022/05/23 09:09:09;;;;;;;58.10;54.20;;;23.70;99.90;;;23.25;100.00;99533.00;5030552;28;20195;-61
2022/05/23 09:11:44;;;;;;;45.83;42.67;;;23.70;99.90;;;23.25;100.00;99489.84;5064458;28;20698;-61
2022/05/23 09:14:16;;;;;;;50.35;46.78;;;23.90;99.90;;;23.52;100.00;99521.59;5042511;28;20218;-62
2022/05/23 09:16:52;;;;;;;46.85;43.67;;;23.90;99.90;;;23.69;100.00;99494.50;5036119;28;20212;-62
2022/05/23 09:19:37;;;;;;;43.55;41.25;;;24.20;99.90;;;23.97;100.00;99488.31;5015520;28;20217;-61
2022/05/23 09:22:47;;;;;;;35.40;32.50;;;24.50;99.90;;;23.24;100.00;99384.72;5017726;28;20225;-61
2022/05/23 09:25:20;;;;;;;33.50;30.95;;;24.40;99.90;;;24.02;100.00;99461.91;4981408;28;20616;-61
2022/05/23 09:27:53;;;;;;;37.92;34.08;;;24.60;99.90;;;24.10;100.00;99367.75;4999078;28;20198;-61
2022/05/23 09:30:23;;;;;;;33.40;30.73;;;25.20;99.90;;;24.33;100.00;99379.81;4993150;28;20222;-62
2022/05/23 09:32:59;;;;;;;38.60;35.97;;;25.20;99.90;;;24.69;100.00;99408.16;4983532;28;20572;-62
2022/05/23 09:35:46;;;;;;;42.22;38.80;;;25.70;99.90;;;24.82;100.00;99434.31;5021660;28;20193;-62
2022/05/23 09:38:29;;;;;;;40.47;38.35;;;25.90;99.90;;;24.88;100.00;99400.59;5067686;28;20272;-62
2022/05/23 09:47:54;;;;;;;43.95;40.95;;;26.70;99.90;;;25.45;100.00;99328.16;5010162;28;20206;-62
2022/05/23 09:50:34;;;;;;;47.10;43.65;;;27.00;99.90;;;25.53;99.98;99287.88;4987250;28;20717;-61
2022/05/23 09:53:16;;;;;;;45.25;41.35;;;27.40;99.90;;;25.56;98.29;99283.22;4989104;28;20228;-62
2022/05/23 09:55:47;;;;;;;41.58;38.47;;;27.30;99.90;;;25.69;98.46;99259.75;5004375;28;20206;-62
2022/05/23 09:58:33;;;;;;;66.60;62.35;;;27.50;99.90;;;26.35;94.64;99282.97;5018894;28;20198;-62
2022/05/23 10:01:08;;;;;;;75.13;70.45;;;27.90;99.90;;;26.11;94.60;99228.72;5011424;28;20220;-62
2022/05/23 10:03:49;;;;;;;78.65;74.40;;;28.40;99.90;;;25.74;96.30;99201.59;5021037;28;20198;-62
2022/05/23 10:06:18;;;;;;;64.15;59.47;;;28.20;99.90;;;25.14;96.35;99140.03;5014066;28;20202;-62
2022/05/23 10:08:50;;;;;;;70.45;65.35;;;28.00;99.90;;;24.98;96.73;99125.88;5031763;28;20208;-62
2022/05/23 10:11:39;;;;;;;74.75;70.13;;;28.20;99.90;;;25.61;97.61;99222.38;5037248;28;20210;-62
2022/05/23 10:14:16;;;;;;;65.43;60.83;;;28.40;99.90;;;25.44;94.12;99136.97;5007355;28;20206;-62
2022/05/23 10:16:50;;;;;;;64.13;59.60;;;28.50;99.90;;;25.20;95.53;99123.38;5014176;28;20455;-62
2022/05/23 10:19:31;;;;;;;70.72;66.45;;;28.30;99.90;;;25.56;94.70;99148.75;5013658;28;20226;-62
2022/05/23 10:22:27;;;;;;;75.43;69.88;;;28.60;99.90;;;25.14;94.50;99075.13;5014999;28;20221;-62
2022/05/23 10:25:09;;;;;;;66.10;61.40;;;28.60;99.90;;;24.93;95.21;99054.13;5012473;28;20206;-62
2022/05/23 10:27:50;;;;;;;69.75;65.78;;;28.10;99.90;;;25.67;97.88;99158.81;5002903;28;20562;-62
2022/05/23 10:30:28;;;;;;;60.67;56.85;;;28.10;99.90;;;24.66;97.58;99032.59;4977823;28;20234;-62
2022/05/23 10:33:09;;;;;;;58.53;54.72;;;27.80;99.90;;;24.72;97.01;99045.72;5029867;28;20206;-62
2022/05/23 10:35:59;;;;;;;61.08;57.17;;;27.50;99.90;;;24.82;99.87;99090.91;5037312;28;20694;-62
2022/05/23 10:44:47;;;;;;;47.53;43.92;;;26.30;99.90;;;24.64;100.00;99100.28;5053494;28;20200;-63
2022/05/23 10:48:15;;;;;;;50.95;47.50;;;26.30;99.90;;;24.57;100.00;99080.94;5060313;28;20681;-62
2022/05/23 10:51:02;;;;;;;45.17;41.90;;;26.40;99.90;;;24.62;100.00;99077.91;5046862;28;20229;-62
2022/05/23 10:54:10;;;;;;;46.17;43.10;;;26.30;99.90;;;24.76;100.00;99125.63;5020482;28;20209;-62
2022/05/23 10:56:57;;;;;;;40.08;36.28;;;26.10;99.90;;;24.83;100.00;99097.19;5004777;28;20205;-62
2022/05/23 10:59:43;;;;;;;35.40;33.05;;;26.20;99.90;;;24.23;100.00;99044.53;5016025;28;20245;-63
2022/05/23 11:02:38;;;;;;;42.65;39.40;;;26.20;99.90;;;24.60;100.00;99079.84;5038388;28;20228;-63
2022/05/23 11:05:21;;;;;;;37.75;34.75;;;26.10;99.90;;;24.56;100.00;99068.38;5035982;28;20194;-62
2022/05/23 11:08:02;;;;;;;33.70;31.00;;;26.00;99.90;;;24.20;100.00;99035.78;5016436;28;20198;-62
2022/05/23 11:11:03;;;;;;;32.70;30.27;;;25.90;99.90;;;24.23;100.00;99049.06;4996043;28;20221;-62
2022/05/23 11:13:51;;;;;;;34.75;31.85;;;25.60;99.90;;;24.56;100.00;99081.91;5018517;28;20198;-62
2022/05/23 11:17:03;;;;;;;35.92;33.00;;;25.60;99.90;;;24.34;100.00;99042.97;4994251;28;20222;-62
2022/05/23 11:19:51;;;;;;;38.38;35.83;;;25.60;99.90;;;24.06;100.00;99014.25;5031829;28;20225;-62
2022/05/23 11:22:32;;;;;;;31.60;29.00;;;25.50;99.90;;;23.99;100.00;99037.25;5038373;28;20217;-62
2022/05/23 11:25:30;;;;;;;36.50;32.80;;;25.40;99.90;;;23.64;100.00;99067.50;5007417;28;20217;-62
2022/05/23 11:34:36;;;;;;;45.38;41.50;;;24.30;99.90;;;23.50;100.00;99086.38;5047870;28;20205;-63